createdAt,value
2022-09-18T00:03:55.529Z,10.60
2022-09-18T00:07:57.047Z,10.60
2022-09-18T00:12:00.034Z,10.50
2022-09-18T00:16:02.196Z,10.60
2022-09-18T00:20:04.413Z,10.60
2022-09-18T00:24:05.967Z,10.50
2022-09-18T00:28:07.681Z,10.50
2022-09-18T00:32:09.221Z,10.50
2022-09-18T00:36:12.401Z,10.50
2022-09-18T00:40:15.601Z,10.60
2022-09-18T00:44:35.102Z,10.50
2022-09-18T00:48:48.544Z,10.50
2022-09-18T00:53:02.009Z,10.50
2022-09-18T00:57:06.025Z,10.50
2022-09-18T01:01:08.978Z,10.50
2022-09-18T01:05:14.065Z,10.60
2022-09-18T01:09:28.818Z,10.60
2022-09-18T01:13:43.342Z,10.60
2022-09-18T01:17:48.707Z,10.60
2022-09-18T01:22:09.066Z,10.50
2022-09-18T01:26:23.789Z,10.60
2022-09-18T01:30:25.310Z,10.60
2022-09-18T01:34:32.844Z,10.70
2022-09-18T01:38:47.330Z,10.60
2022-09-18T01:42:49.290Z,10.70
2022-09-18T01:46:51.193Z,10.70
2022-09-18T01:50:55.224Z,10.70
2022-09-18T01:54:58.348Z,10.70
2022-09-18T01:59:01.624Z,10.60
2022-09-18T02:03:09.627Z,10.60
2022-09-18T02:07:15.402Z,10.60
2022-09-18T02:11:18.407Z,10.70
2022-09-18T02:15:21.521Z,10.70
2022-09-18T02:19:25.628Z,10.60
2022-09-18T02:23:28.135Z,10.70
2022-09-18T02:27:30.787Z,10.70
2022-09-18T02:31:32.665Z,10.70
2022-09-18T02:35:40.078Z,10.60
2022-09-18T02:40:00.512Z,10.70
2022-09-18T02:44:06.020Z,10.70
2022-09-18T02:48:33.893Z,10.60
2022-09-18T02:52:42.971Z,10.50
2022-09-18T02:56:45.864Z,10.50
2022-09-18T03:00:48.746Z,10.50
2022-09-18T03:04:50.258Z,10.50
2022-09-18T03:08:51.955Z,10.50
2022-09-18T03:12:53.456Z,10.50
2022-09-18T03:16:55.008Z,10.40
2022-09-18T03:20:56.511Z,10.40
2022-09-18T03:24:58.063Z,10.40
2022-09-18T03:28:59.623Z,10.40
2022-09-18T03:33:01.146Z,10.40
2022-09-18T03:37:06.009Z,10.40
2022-09-18T03:41:07.528Z,10.40
2022-09-18T03:45:09.232Z,10.30
2022-09-18T03:49:10.829Z,10.40
2022-09-18T03:53:12.318Z,10.40
2022-09-18T03:57:13.841Z,10.30
2022-09-18T04:01:15.406Z,10.30
2022-09-18T04:05:16.976Z,10.20
2022-09-18T04:09:18.513Z,10.30
2022-09-18T04:13:20.614Z,10.30
2022-09-18T04:17:22.172Z,10.30
2022-09-18T04:21:23.828Z,10.30
2022-09-18T04:25:25.352Z,10.30
2022-09-18T04:29:26.978Z,10.30
2022-09-18T04:33:28.696Z,10.40
2022-09-18T04:37:30.214Z,10.30
2022-09-18T04:41:31.729Z,10.30
2022-09-18T04:45:33.263Z,10.30
2022-09-18T04:49:34.775Z,10.40
2022-09-18T04:53:37.883Z,10.40
2022-09-18T04:57:39.438Z,10.50
2022-09-18T05:01:41.133Z,10.40
2022-09-18T05:05:42.683Z,10.50
2022-09-18T05:09:44.257Z,10.50
2022-09-18T05:13:49.439Z,10.40
2022-09-18T05:18:00.750Z,10.50
2022-09-18T05:22:02.259Z,10.40
2022-09-18T05:26:03.914Z,10.40
2022-09-18T05:30:05.755Z,10.50
2022-09-18T05:34:07.283Z,10.40
2022-09-18T05:38:09.884Z,10.50
2022-09-18T05:42:11.402Z,10.50
2022-09-18T05:46:14.310Z,10.50
2022-09-18T05:50:16.020Z,10.50
2022-09-18T05:54:17.586Z,10.60
2022-09-18T05:58:19.748Z,10.50
2022-09-18T06:02:21.409Z,10.60
2022-09-18T06:06:22.983Z,10.60
2022-09-18T06:10:24.532Z,10.60
2022-09-18T06:14:26.043Z,10.60
2022-09-18T06:18:27.559Z,10.50
2022-09-18T06:22:29.120Z,10.60
2022-09-18T06:26:31.142Z,10.70
2022-09-18T06:30:33.825Z,10.70
2022-09-18T06:34:38.587Z,10.80
2022-09-18T06:38:40.692Z,10.70
2022-09-18T06:42:45.901Z,10.80
2022-09-18T06:46:48.190Z,10.70
2022-09-18T06:50:56.945Z,10.70
2022-09-18T06:54:58.512Z,10.60
2022-09-18T06:59:00.011Z,10.60
2022-09-18T07:03:02.296Z,10.60
2022-09-18T07:07:03.904Z,10.60
2022-09-18T07:11:05.409Z,10.70
2022-09-18T07:15:07.097Z,10.70
2022-09-18T07:19:08.652Z,10.60
2022-09-18T07:23:10.212Z,10.70
2022-09-18T07:27:11.727Z,10.80
2022-09-18T07:31:13.366Z,10.90
2022-09-18T07:35:14.931Z,10.80
2022-09-18T07:39:16.610Z,11.10
2022-09-18T07:43:18.195Z,11.20
2022-09-18T07:47:20.122Z,11.40
2022-09-18T07:51:25.972Z,11.40
2022-09-18T07:55:28.377Z,11.60
2022-09-18T07:59:29.915Z,11.50
2022-09-18T08:03:31.757Z,11.60
2022-09-18T08:07:33.559Z,11.70
2022-09-18T08:11:35.143Z,11.80
2022-09-18T08:15:37.548Z,11.70
2022-09-18T08:19:39.155Z,11.80
2022-09-18T08:23:40.811Z,11.70
2022-09-18T08:27:42.489Z,12.00
2022-09-18T08:31:44.228Z,11.70
2022-09-18T08:35:47.710Z,11.70
2022-09-18T08:39:49.231Z,11.70
2022-09-18T08:43:57.545Z,11.80
2022-09-18T08:48:04.226Z,11.60
2022-09-18T08:52:28.921Z,11.70
2022-09-18T08:56:30.897Z,11.50
2022-09-18T09:00:44.948Z,11.40
2022-09-18T09:04:46.733Z,11.50
2022-09-18T09:09:12.531Z,11.50
2022-09-18T09:13:34.656Z,11.40
2022-09-18T09:17:50.617Z,11.50
2022-09-18T09:22:18.531Z,11.50
2022-09-18T09:26:21.768Z,11.50
2022-09-18T09:30:23.370Z,11.40
2022-09-18T09:34:35.074Z,11.40
2022-09-18T09:38:53.710Z,11.40
2022-09-18T09:42:59.550Z,11.20
2022-09-18T09:47:01.157Z,11.30
2022-09-18T09:51:05.785Z,11.40
2022-09-18T09:55:07.335Z,11.40
2022-09-18T09:59:29.107Z,11.40
2022-09-18T10:03:33.720Z,11.30
2022-09-18T10:07:39.202Z,11.50
2022-09-18T10:11:43.061Z,11.40
2022-09-18T10:15:46.200Z,11.50
2022-09-18T10:19:48.016Z,11.40
2022-09-18T10:23:49.604Z,11.50
2022-09-18T10:27:51.128Z,11.50
2022-09-18T10:31:54.428Z,11.40
2022-09-18T10:36:00.399Z,11.50
2022-09-18T10:40:02.306Z,11.50
2022-09-18T10:44:18.609Z,11.60
2022-09-18T10:48:23.125Z,11.50
2022-09-18T10:52:31.625Z,11.60
2022-09-18T10:56:33.284Z,11.60
2022-09-18T11:00:39.654Z,11.70
2022-09-18T11:04:45.880Z,11.60
2022-09-18T11:08:49.294Z,11.50
2022-09-18T11:12:55.579Z,11.80
2022-09-18T11:16:59.041Z,11.70
2022-09-18T11:21:02.297Z,11.80
2022-09-18T11:25:23.709Z,11.90
2022-09-18T11:29:39.555Z,12.00
2022-09-18T11:33:41.082Z,12.00
2022-09-18T11:37:50.903Z,12.00
2022-09-18T11:41:54.121Z,11.90
2022-09-18T11:46:17.133Z,11.90
2022-09-18T11:50:23.621Z,12.10
2022-09-18T11:54:36.311Z,11.90
2022-09-18T11:58:46.781Z,11.80
2022-09-18T12:02:57.236Z,11.90
2022-09-18T12:07:04.954Z,11.90
2022-09-18T12:11:05.092Z,11.80
2022-09-18T12:15:23.557Z,11.90
2022-09-18T12:19:25.228Z,11.70
2022-09-18T12:23:27.083Z,11.70
2022-09-18T12:27:35.762Z,11.70
2022-09-18T12:31:43.453Z,11.80
2022-09-18T12:35:56.455Z,11.90
2022-09-18T12:40:01.675Z,11.80
2022-09-18T12:44:03.236Z,11.80
2022-09-18T12:48:22.157Z,11.90
2022-09-18T12:52:30.280Z,11.90
2022-09-18T12:56:43.434Z,12.00
2022-09-18T13:00:46.744Z,11.80
2022-09-18T13:04:51.386Z,11.80
2022-09-18T13:08:56.502Z,11.90
2022-09-18T13:13:17.060Z,12.00
2022-09-18T13:17:39.551Z,12.10
2022-09-18T13:21:42.403Z,11.90
2022-09-18T13:25:44.748Z,12.20
2022-09-18T13:29:52.283Z,12.20
2022-09-18T13:34:01.857Z,12.40
2022-09-18T13:38:04.880Z,12.70
2022-09-18T13:42:06.486Z,12.60
2022-09-18T13:46:10.017Z,12.50
2022-09-18T13:50:16.302Z,12.60
2022-09-18T13:54:20.312Z,12.40
2022-09-18T13:58:31.041Z,12.50
2022-09-18T14:02:34.236Z,12.40
2022-09-18T14:06:36.099Z,12.40
2022-09-18T14:11:14.014Z,12.10
2022-09-18T14:15:22.112Z,12.10
2022-09-18T14:19:33.792Z,12.00
2022-09-18T14:23:35.435Z,11.90
2022-09-18T14:27:50.707Z,11.80
2022-09-18T14:31:53.500Z,11.60
2022-09-18T14:35:57.391Z,11.40
2022-09-18T14:39:59.117Z,11.30
2022-09-18T14:44:02.840Z,11.40
2022-09-18T14:48:19.459Z,11.30
2022-09-18T14:52:28.803Z,11.30
2022-09-18T14:56:34.799Z,11.30
2022-09-18T15:00:37.369Z,11.30
2022-09-18T15:04:41.579Z,11.20
2022-09-18T15:08:44.430Z,11.30
2022-09-18T15:12:46.365Z,11.20
2022-09-18T15:16:55.330Z,11.20
2022-09-18T15:20:58.121Z,11.20
2022-09-18T15:25:01.778Z,11.30
2022-09-18T15:29:05.024Z,11.30
2022-09-18T15:33:12.424Z,11.30
2022-09-18T15:37:25.715Z,11.40
2022-09-18T15:41:37.831Z,11.40
2022-09-18T15:45:39.543Z,11.30
2022-09-18T15:49:41.200Z,11.30
2022-09-18T15:54:21.839Z,11.50
2022-09-18T15:58:39.384Z,11.50
2022-09-18T16:02:40.952Z,11.40
2022-09-18T16:06:49.700Z,11.30
2022-09-18T16:10:52.527Z,11.20
2022-09-18T16:15:00.260Z,11.20
2022-09-18T16:19:13.119Z,11.00
2022-09-18T16:23:28.223Z,10.90
2022-09-18T16:27:29.754Z,10.80
2022-09-18T16:31:32.802Z,10.90
2022-09-18T16:35:34.426Z,10.90
2022-09-18T16:39:35.976Z,10.80
2022-09-18T16:43:37.507Z,10.80
2022-09-18T16:47:43.990Z,10.80
2022-09-18T16:51:45.733Z,10.80
2022-09-18T16:55:48.814Z,10.80
2022-09-18T16:59:51.010Z,10.80
2022-09-18T17:03:52.524Z,10.80
2022-09-18T17:07:54.085Z,10.80
2022-09-18T17:11:55.585Z,10.70
2022-09-18T17:16:01.166Z,10.70
2022-09-18T17:20:04.784Z,10.60
2022-09-18T17:24:06.452Z,10.70
2022-09-18T17:28:09.253Z,10.60
2022-09-18T17:32:11.896Z,10.60
2022-09-18T17:36:15.073Z,10.50
2022-09-18T17:40:16.979Z,10.50
2022-09-18T17:44:18.768Z,10.50
2022-09-18T17:48:20.338Z,10.50
2022-09-18T17:52:22.230Z,10.40
2022-09-18T17:56:29.681Z,10.40
2022-09-18T18:00:31.273Z,10.40
2022-09-18T18:04:32.867Z,10.40
2022-09-18T18:08:34.553Z,10.40
2022-09-18T18:12:36.620Z,10.40
2022-09-18T18:16:38.277Z,10.40
2022-09-18T18:20:40.184Z,10.40
2022-09-18T18:24:41.703Z,10.40
2022-09-18T18:28:45.087Z,10.40
2022-09-18T18:32:46.607Z,10.40
2022-09-18T18:36:49.250Z,10.40
2022-09-18T18:40:52.115Z,10.40
2022-09-18T18:44:53.707Z,10.40
2022-09-18T18:49:01.673Z,10.40
2022-09-18T18:53:03.331Z,10.40
2022-09-18T18:57:08.602Z,8.90
2022-09-18T19:01:14.136Z,8.70
2022-09-18T19:05:16.500Z,8.70
2022-09-18T19:09:23.048Z,8.50
2022-09-18T19:13:25.054Z,8.50
2022-09-18T19:17:26.890Z,8.60
2022-09-18T19:21:28.599Z,8.70
2022-09-18T19:25:30.278Z,8.80
2022-09-18T19:29:31.867Z,8.90
2022-09-18T19:33:33.657Z,8.90
2022-09-18T19:37:36.074Z,9.10
2022-09-18T19:41:55.751Z,9.20
2022-09-18T19:45:57.444Z,9.20
2022-09-18T19:49:59.639Z,9.10
2022-09-18T19:54:01.211Z,9.10
2022-09-18T19:58:02.955Z,9.10
2022-09-18T20:02:05.117Z,9.20
2022-09-18T20:06:06.879Z,9.20
2022-09-18T20:10:10.455Z,9.30
2022-09-18T20:14:12.020Z,9.20
2022-09-18T20:18:13.576Z,9.10
2022-09-18T20:22:15.206Z,9.10
2022-09-18T20:26:17.778Z,9.00
2022-09-18T20:30:19.707Z,8.90
2022-09-18T20:34:22.336Z,9.00
2022-09-18T20:38:24.272Z,8.90
2022-09-18T20:42:25.925Z,8.90
2022-09-18T20:46:27.576Z,8.80
2022-09-18T20:50:29.308Z,8.80
2022-09-18T20:54:30.875Z,8.70
2022-09-18T20:58:34.041Z,8.70
2022-09-18T21:02:35.970Z,8.70
2022-09-18T21:06:38.182Z,8.60
2022-09-18T21:10:46.690Z,8.60
2022-09-18T21:14:48.275Z,8.50
2022-09-18T21:18:50.123Z,8.50
2022-09-18T21:23:10.321Z,8.60
2022-09-18T21:27:11.883Z,8.60
2022-09-18T21:31:13.577Z,8.60
2022-09-18T21:35:15.276Z,8.60
2022-09-18T21:39:16.808Z,8.60
2022-09-18T21:43:18.449Z,8.50
2022-09-18T21:47:21.246Z,8.50
2022-09-18T21:51:22.828Z,8.40
2022-09-18T21:55:24.372Z,8.40
2022-09-18T21:59:27.178Z,8.50
2022-09-18T22:03:28.684Z,8.50
2022-09-18T22:07:31.101Z,8.50
2022-09-18T22:11:36.628Z,8.50
2022-09-18T22:15:38.180Z,8.50
2022-09-18T22:19:41.606Z,8.60
2022-09-18T22:23:43.333Z,8.60
2022-09-18T22:27:45.132Z,8.60
2022-09-18T22:31:47.133Z,8.70
2022-09-18T22:35:49.043Z,8.70
2022-09-18T22:39:50.631Z,8.70
2022-09-18T22:43:55.786Z,8.70
2022-09-18T22:47:57.323Z,8.70
2022-09-18T22:51:58.877Z,8.80
2022-09-18T22:56:03.760Z,8.80
2022-09-18T23:00:05.705Z,8.80
2022-09-18T23:04:07.617Z,8.90
2022-09-18T23:08:09.171Z,8.90
2022-09-18T23:12:10.711Z,8.90
2022-09-18T23:16:15.175Z,8.90
2022-09-18T23:20:17.010Z,8.90
2022-09-18T23:24:18.653Z,9.00
2022-09-18T23:28:20.177Z,9.00
2022-09-18T23:32:21.699Z,8.90
2022-09-18T23:36:24.703Z,8.90
2022-09-18T23:40:26.252Z,8.90
2022-09-18T23:44:34.423Z,8.90
2022-09-18T23:48:36.179Z,8.90
2022-09-18T23:52:37.697Z,8.90
2022-09-18T23:56:39.202Z,9.00
